createdAt,value
2019-04-27T00:01:27.168Z,100129.05
2019-04-27T00:03:06.079Z,100131.00
2019-04-27T00:04:48.757Z,100137.08
2019-04-27T00:06:26.198Z,100134.59
2019-04-27T00:08:15.168Z,100130.16
2019-04-27T00:10:03.859Z,100139.31
2019-04-27T00:11:42.078Z,100135.69
2019-04-27T00:13:18.748Z,100142.08
2019-04-27T00:14:58.817Z,100146.80
2019-04-27T00:16:54.258Z,100150.39
2019-04-27T00:18:31.413Z,100149.28
2019-04-27T00:20:25.617Z,100152.87
2019-04-27T00:22:05.446Z,100154.81
2019-04-27T00:23:43.002Z,100160.34
2019-04-27T00:25:27.076Z,100147.89
2019-04-27T00:27:03.287Z,100148.42
2019-04-27T00:28:38.979Z,100141.78
2019-04-27T00:30:15.466Z,100138.20
2019-04-27T00:31:51.056Z,100143.73
2019-04-27T00:33:27.914Z,100147.89
2019-04-27T00:35:03.934Z,100138.48
2019-04-27T00:36:46.890Z,100137.10
2019-04-27T00:38:33.749Z,100137.92
2019-04-27T00:40:10.983Z,100133.48
2019-04-27T00:41:46.505Z,100141.79
2019-04-27T00:43:22.927Z,100132.95
2019-04-27T00:44:59.769Z,100129.89
2019-04-27T00:46:35.300Z,100127.41
2019-04-27T00:48:10.816Z,100124.89
2019-04-27T00:49:46.410Z,100129.05
2019-04-27T00:51:23.172Z,100128.23
2019-04-27T00:53:00.010Z,100129.61
2019-04-27T00:54:35.701Z,100136.25
2019-04-27T00:56:13.938Z,100131.81
2019-04-27T00:58:07.658Z,100127.12
2019-04-27T00:59:43.211Z,100125.18
2019-04-27T01:01:23.395Z,100125.45
2019-04-27T01:03:04.625Z,100119.63
2019-04-27T01:04:40.145Z,100115.77
2019-04-27T01:06:15.680Z,100114.95
2019-04-27T01:07:51.198Z,100116.34
2019-04-27T01:09:26.976Z,100120.20
2019-04-27T01:11:02.984Z,100123.25
2019-04-27T01:12:42.981Z,100129.61
2019-04-27T01:14:18.652Z,100127.41
2019-04-27T01:15:54.227Z,100131.28
2019-04-27T01:17:30.207Z,100131.28
2019-04-27T01:19:05.728Z,100131.28
2019-04-27T01:20:41.251Z,100138.48
2019-04-27T01:22:16.780Z,100141.25
2019-04-27T01:23:52.311Z,100135.72
2019-04-27T01:25:29.459Z,100133.77
2019-04-27T01:27:23.191Z,100130.43
2019-04-27T01:29:03.154Z,100127.12
2019-04-27T01:30:56.580Z,100126.02
2019-04-27T01:32:33.957Z,100122.69
2019-04-27T01:34:09.839Z,100113.56
2019-04-27T01:35:45.364Z,100120.73
2019-04-27T01:37:21.172Z,100117.97
2019-04-27T01:38:59.454Z,100111.90
2019-04-27T01:40:35.286Z,100111.05
2019-04-27T01:42:10.812Z,100104.98
2019-04-27T01:43:46.326Z,100106.90
2019-04-27T01:45:21.855Z,100112.19
2019-04-27T01:46:57.389Z,100112.44
2019-04-27T01:48:32.892Z,100116.88
2019-04-27T01:50:08.865Z,100113.82
2019-04-27T01:51:44.382Z,100112.72
2019-04-27T01:53:19.929Z,100113.82
2019-04-27T01:54:55.726Z,100105.27
2019-04-27T01:56:31.241Z,100106.36
2019-04-27T01:58:10.736Z,100103.03
2019-04-27T01:59:44.345Z,100107.75
2019-04-27T02:01:39.022Z,100109.95
2019-04-27T02:03:16.601Z,100119.63
2019-04-27T02:05:09.863Z,100112.71
2019-04-27T02:06:48.711Z,100111.89
2019-04-27T02:08:24.505Z,100111.07
2019-04-27T02:10:00.686Z,100106.64
2019-04-27T02:11:36.199Z,100101.10
2019-04-27T02:13:11.736Z,100109.94
2019-04-27T02:14:49.087Z,100116.04
2019-04-27T02:16:24.689Z,100112.45
2019-04-27T02:18:00.766Z,100116.86
2019-04-27T02:19:36.374Z,100112.70
2019-04-27T02:21:11.905Z,100116.04
2019-04-27T02:22:48.504Z,100119.09
2019-04-27T02:24:24.738Z,100109.94
2019-04-27T02:26:00.880Z,100110.22
2019-04-27T02:27:38.913Z,100111.59
2019-04-27T02:29:19.316Z,100111.06
2019-04-27T02:31:05.471Z,100111.60
2019-04-27T02:32:51.402Z,100107.16
2019-04-27T02:34:32.292Z,100097.23
2019-04-27T02:36:12.196Z,100093.89
2019-04-27T02:37:45.369Z,100096.38
2019-04-27T02:39:21.729Z,100091.69
2019-04-27T02:41:00.068Z,100101.37
2019-04-27T02:42:39.240Z,100097.76
2019-04-27T02:44:19.959Z,100104.39
2019-04-27T02:45:55.677Z,100109.39
2019-04-27T02:47:31.195Z,100103.01
2019-04-27T02:49:07.393Z,100100.53
2019-04-27T02:50:45.105Z,100095.84
2019-04-27T02:52:29.823Z,100100.53
2019-04-27T02:54:04.908Z,100105.25
2019-04-27T02:55:41.078Z,100101.91
2019-04-27T02:57:16.604Z,100097.23
2019-04-27T02:58:52.329Z,100085.31
2019-04-27T03:00:29.230Z,100088.64
2019-04-27T03:02:10.756Z,100086.70
2019-04-27T03:03:46.508Z,100100.81
2019-04-27T03:05:26.274Z,100104.69
2019-04-27T03:07:01.789Z,100114.66
2019-04-27T03:08:39.409Z,100116.33
2019-04-27T03:10:14.640Z,100115.48
2019-04-27T03:11:50.271Z,100122.39
2019-04-27T03:13:30.151Z,100126.55
2019-04-27T03:15:14.809Z,100133.47
2019-04-27T03:17:00.011Z,100133.19
2019-04-27T03:18:40.461Z,100137.09
2019-04-27T03:20:20.448Z,100135.42
2019-04-27T03:21:59.301Z,100130.98
2019-04-27T03:23:35.796Z,100131.55
2019-04-27T03:25:15.163Z,100132.37
2019-04-27T03:27:00.455Z,100132.94
2019-04-27T03:28:36.225Z,100130.99
2019-04-27T03:30:13.933Z,100133.77
2019-04-27T03:31:53.915Z,100126.02
2019-04-27T03:33:26.657Z,100128.22
2019-04-27T03:35:03.708Z,100130.42
2019-04-27T03:36:39.681Z,100129.61
2019-04-27T03:38:15.678Z,100133.19
2019-04-27T03:39:51.351Z,100135.42
2019-04-27T03:41:29.299Z,100131.80
2019-04-27T03:43:06.421Z,100130.42
2019-04-27T03:44:41.933Z,100131.27
2019-04-27T03:46:20.194Z,100135.70
2019-04-27T03:47:54.955Z,100139.30
2019-04-27T03:49:37.755Z,100134.32
2019-04-27T03:51:09.716Z,100138.47
2019-04-27T03:53:02.763Z,100139.30
2019-04-27T03:54:59.807Z,100140.96
2019-04-27T03:56:39.580Z,100133.22
2019-04-27T03:58:16.494Z,100144.53
2019-04-27T03:59:59.716Z,100136.80
2019-04-27T04:01:36.111Z,100138.74
2019-04-27T04:03:11.621Z,100142.33
2019-04-27T04:04:50.675Z,100140.38
2019-04-27T04:06:25.451Z,100139.00
2019-04-27T04:08:01.807Z,100139.00
2019-04-27T04:09:40.967Z,100136.52
2019-04-27T04:11:19.823Z,100134.84
2019-04-27T04:13:03.159Z,100137.08
2019-04-27T04:14:42.467Z,100141.52
2019-04-27T04:16:23.334Z,100139.28
2019-04-27T04:17:59.567Z,100145.38
2019-04-27T04:19:51.153Z,100144.53
2019-04-27T04:21:13.488Z,100145.67
2019-04-27T04:22:51.329Z,100150.64
2019-04-27T04:24:28.645Z,100154.80
2019-04-27T04:26:03.826Z,100156.18
2019-04-27T04:27:40.086Z,100152.30
2019-04-27T04:29:16.648Z,100158.13
2019-04-27T04:30:52.239Z,100165.05
2019-04-27T04:32:29.709Z,100158.38
2019-04-27T04:34:05.178Z,100155.61
2019-04-27T04:35:40.679Z,100159.77
2019-04-27T04:37:16.470Z,100157.00
2019-04-27T04:38:52.236Z,100160.62
2019-04-27T04:40:41.722Z,100163.39
2019-04-27T04:42:31.154Z,100165.03
2019-04-27T04:44:12.137Z,100166.16
2019-04-27T04:46:09.929Z,100169.74
2019-04-27T04:47:44.671Z,100162.25
2019-04-27T04:49:21.575Z,100166.44
2019-04-27T04:50:59.785Z,100169.20
2019-04-27T04:52:34.686Z,100163.39
2019-04-27T04:54:10.275Z,100161.72
2019-04-27T04:55:46.070Z,100166.41
2019-04-27T04:57:22.006Z,100169.19
2019-04-27T04:58:59.825Z,100167.55
2019-04-27T05:00:34.942Z,100169.47
2019-04-27T05:02:10.878Z,100173.09
2019-04-27T05:03:46.571Z,100166.42
2019-04-27T05:05:22.090Z,100164.50
2019-04-27T05:06:59.190Z,100167.28
2019-04-27T05:08:34.957Z,100166.17
2019-04-27T05:10:10.653Z,100158.41
2019-04-27T05:11:46.174Z,100165.33
2019-04-27T05:13:21.779Z,100162.03
2019-04-27T05:14:58.977Z,100161.18
2019-04-27T05:16:34.621Z,100160.90
2019-04-27T05:18:10.148Z,100160.36
2019-04-27T05:19:45.746Z,100163.39
2019-04-27T05:21:29.466Z,100162.29
2019-04-27T05:23:07.040Z,100163.14
2019-04-27T05:24:42.560Z,100164.52
2019-04-27T05:26:18.985Z,100168.11
2019-04-27T05:27:55.320Z,100171.70
2019-04-27T05:29:30.838Z,100174.22
2019-04-27T05:31:06.911Z,100171.98
2019-04-27T05:32:42.426Z,100177.23
2019-04-27T05:34:19.553Z,100167.83
2019-04-27T05:35:55.349Z,100169.21
2019-04-27T05:37:31.862Z,100171.70
2019-04-27T05:39:10.064Z,100171.41
2019-04-27T05:40:45.716Z,100177.80
2019-04-27T05:42:21.235Z,100178.62
2019-04-27T05:43:56.529Z,100180.03
2019-04-27T05:46:25.339Z,100183.66
2019-04-27T05:48:03.457Z,100181.12
2019-04-27T05:49:44.243Z,100185.27
2019-04-27T05:51:19.646Z,100177.27
2019-04-27T05:52:55.367Z,100174.78
2019-04-27T05:54:30.888Z,100174.77
2019-04-27T05:56:09.262Z,100174.48
2019-04-27T05:57:44.773Z,100173.91
2019-04-27T05:59:20.065Z,100173.91
2019-04-27T06:00:55.563Z,100172.80
2019-04-27T06:02:31.086Z,100174.47
2019-04-27T06:04:08.849Z,100182.77
2019-04-27T06:05:44.362Z,100176.13
2019-04-27T06:07:19.979Z,100176.11
2019-04-27T06:08:55.506Z,100177.75
2019-04-27T06:10:31.398Z,100177.48
2019-04-27T06:12:08.880Z,100181.36
2019-04-27T06:13:44.583Z,100175.23
2019-04-27T06:15:20.126Z,100175.80
2019-04-27T06:16:59.464Z,100172.72
2019-04-27T06:18:34.587Z,100175.48
2019-04-27T06:20:10.991Z,100171.86
2019-04-27T06:21:46.782Z,100168.53
2019-04-27T06:23:22.252Z,100165.19
2019-04-27T06:24:59.718Z,100164.36
2019-04-27T06:26:35.149Z,100162.67
2019-04-27T06:28:10.694Z,100155.73
2019-04-27T06:29:46.227Z,100155.44
2019-04-27T06:31:21.767Z,100160.42
2019-04-27T06:32:59.387Z,100154.88
2019-04-27T06:34:34.997Z,100162.36
2019-04-27T06:36:10.537Z,100159.59
2019-04-27T06:37:46.077Z,100157.91
2019-04-27T06:39:21.729Z,100161.52
2019-04-27T06:40:57.254Z,100157.06
2019-04-27T06:42:34.488Z,100159.81
2019-04-27T06:44:11.398Z,100162.56
2019-04-27T06:45:48.813Z,100158.62
2019-04-27T06:47:24.518Z,100160.84
2019-04-27T06:49:00.091Z,100163.58
2019-04-27T06:50:36.590Z,100159.91
2019-04-27T06:52:13.359Z,100162.63
2019-04-27T06:53:49.443Z,100165.94
2019-04-27T06:55:25.083Z,100171.44
2019-04-27T06:57:00.607Z,100165.25
2019-04-27T06:58:36.144Z,100168.27
2019-04-27T07:00:11.723Z,100163.77
2019-04-27T07:01:48.863Z,100169.82
2019-04-27T07:03:24.543Z,100166.48
2019-04-27T07:05:00.082Z,100163.41
2019-04-27T07:06:36.769Z,100169.23
2019-04-27T07:08:18.192Z,100162.81
2019-04-27T07:09:53.864Z,100167.78
2019-04-27T07:11:29.697Z,100170.52
2019-04-27T07:13:06.929Z,100169.60
2019-04-27T07:14:52.423Z,100169.55
2019-04-27T07:16:20.847Z,100176.73
2019-04-27T07:17:56.502Z,100172.55
2019-04-27T07:19:32.020Z,100176.39
2019-04-27T07:21:16.886Z,100173.26
2019-04-27T07:22:44.789Z,100176.83
2019-04-27T07:24:20.327Z,100178.14
2019-04-27T07:25:55.857Z,100173.09
2019-04-27T07:27:31.368Z,100173.31
2019-04-27T07:29:06.989Z,100174.34
2019-04-27T07:30:43.866Z,100173.98
2019-04-27T07:32:19.613Z,100173.31
2019-04-27T07:33:55.208Z,100169.08
2019-04-27T07:35:33.364Z,100168.44
2019-04-27T07:37:09.729Z,100167.53
2019-04-27T07:38:46.132Z,100161.63
2019-04-27T07:40:22.001Z,100162.92
2019-04-27T07:41:58.581Z,100164.20
2019-04-27T07:43:36.181Z,100163.08
2019-04-27T07:45:13.885Z,100163.83
2019-04-27T07:46:51.051Z,100163.20
2019-04-27T07:48:28.455Z,100165.07
2019-04-27T07:50:06.422Z,100160.55
2019-04-27T07:51:41.959Z,100160.47
2019-04-27T07:54:59.072Z,100167.24
2019-04-27T07:56:34.622Z,100166.85
2019-04-27T07:58:10.180Z,100164.17
2019-04-27T07:59:45.704Z,100161.22
2019-04-27T08:01:22.647Z,100158.26
2019-04-27T08:02:58.634Z,100153.89
2019-04-27T08:04:34.343Z,100155.45
2019-04-27T08:06:10.828Z,100154.42
2019-04-27T08:07:49.004Z,100146.72
2019-04-27T08:09:24.455Z,100147.38
2019-04-27T08:11:00.036Z,100147.98
2019-04-27T08:12:35.574Z,100149.50
2019-04-27T08:14:11.399Z,100143.13
2019-04-27T08:15:47.397Z,100142.33
2019-04-27T08:17:22.936Z,100146.30
2019-04-27T08:19:00.056Z,100143.05
2019-04-27T08:20:35.679Z,100141.75
2019-04-27T08:22:11.218Z,100151.09
2019-04-27T08:23:48.997Z,100147.86
2019-04-27T08:25:24.616Z,100147.45
2019-04-27T08:27:17.411Z,100148.59
2019-04-27T08:29:08.513Z,100150.64
2019-04-27T08:30:54.812Z,100151.53
2019-04-27T08:32:35.722Z,100154.47
2019-04-27T08:34:12.954Z,100156.55
2019-04-27T08:35:49.058Z,100154.77
2019-04-27T08:37:25.190Z,100157.21
2019-04-27T08:39:00.710Z,100160.79
2019-04-27T08:40:39.326Z,100155.95
2019-04-27T08:42:15.001Z,100154.74
2019-04-27T08:43:50.540Z,100157.15
2019-04-27T08:45:26.083Z,100153.50
2019-04-27T08:47:01.625Z,100155.41
2019-04-27T08:48:39.242Z,100152.02
2019-04-27T08:50:45.321Z,100153.42
2019-04-27T08:52:20.855Z,100152.59
2019-04-27T08:53:56.648Z,100152.19
2019-04-27T08:55:32.175Z,100144.16
2019-04-27T08:57:09.524Z,100146.91
2019-04-27T08:58:44.962Z,100146.61
2019-04-27T09:00:20.691Z,100138.80
2019-04-27T09:01:56.247Z,100139.40
2019-04-27T09:03:31.807Z,100143.27
2019-04-27T09:05:09.398Z,100132.94
2019-04-27T09:06:46.434Z,100138.58
2019-04-27T09:08:26.314Z,100138.63
2019-04-27T09:10:06.499Z,100132.72
2019-04-27T09:11:43.704Z,100131.27
2019-04-27T09:13:23.671Z,100128.79
2019-04-27T09:15:03.606Z,100131.87
2019-04-27T09:16:40.764Z,100131.66
2019-04-27T09:18:19.186Z,100130.66
2019-04-27T09:20:02.543Z,100132.50
2019-04-27T09:21:56.116Z,100136.00
2019-04-27T09:23:31.917Z,100134.44
2019-04-27T09:25:09.412Z,100128.58
2019-04-27T09:26:45.236Z,100127.48
2019-04-27T09:28:21.905Z,100123.30
2019-04-27T09:29:59.055Z,100126.70
2019-04-27T09:31:34.739Z,100116.30
2019-04-27T09:33:10.257Z,100120.69
2019-04-27T09:34:46.669Z,100117.83
2019-04-27T09:36:22.320Z,100116.62
2019-04-27T09:37:57.861Z,100104.88
2019-04-27T09:39:36.578Z,100112.71
2019-04-27T09:41:12.546Z,100105.63
2019-04-27T09:42:48.615Z,100114.59
2019-04-27T09:44:24.240Z,100110.95
2019-04-27T09:46:01.794Z,100114.52
2019-04-27T09:47:39.046Z,100113.81
2019-04-27T09:52:07.154Z,100113.12
2019-04-27T09:53:50.496Z,100112.23
2019-04-27T09:55:28.801Z,100107.91
2019-04-27T09:57:07.087Z,100106.75
2019-04-27T09:58:50.613Z,100107.34
2019-04-27T10:00:31.067Z,100105.72
2019-04-27T10:02:08.729Z,100107.96
2019-04-27T10:03:48.334Z,100104.09
2019-04-27T10:05:26.285Z,100102.91
2019-04-27T10:07:08.729Z,100098.08
2019-04-27T10:08:40.788Z,100096.66
2019-04-27T10:10:20.076Z,100098.39
2019-04-27T10:11:57.236Z,100093.36
2019-04-27T10:13:51.996Z,100098.61
2019-04-27T10:16:04.160Z,100094.86
2019-04-27T10:17:34.373Z,100097.69
2019-04-27T10:19:12.334Z,100100.15
2019-04-27T10:21:12.572Z,100107.77
2019-04-27T10:23:02.905Z,100105.22
2019-04-27T10:24:46.227Z,100097.98
2019-04-27T10:26:43.713Z,100094.80
2019-04-27T10:28:26.528Z,100092.55
2019-04-27T10:34:27.470Z,100096.67
2019-04-27T10:36:09.065Z,100089.60
2019-04-27T10:41:46.891Z,100088.19
2019-04-27T10:43:25.840Z,100090.08
2019-04-27T10:45:01.964Z,100088.16
2019-04-27T10:46:41.878Z,100090.28
2019-04-27T10:48:19.685Z,100085.73
2019-04-27T10:49:58.470Z,100090.17
2019-04-27T10:51:36.423Z,100094.33
2019-04-27T10:53:13.911Z,100091.69
2019-04-27T10:54:51.428Z,100093.80
2019-04-27T10:56:32.958Z,100093.97
2019-04-27T10:58:10.854Z,100095.03
2019-04-27T10:59:48.126Z,100092.47
2019-04-27T11:01:25.670Z,100101.84
2019-04-27T11:03:06.821Z,100091.11
2019-04-27T11:05:00.116Z,100091.89
2019-04-27T11:06:41.961Z,100091.25
2019-04-27T11:08:17.657Z,100086.06
2019-04-27T11:09:53.196Z,100086.46
2019-04-27T11:11:28.759Z,100087.38
2019-04-27T11:13:07.302Z,100084.53
2019-04-27T11:14:42.819Z,100083.09
2019-04-27T11:16:26.879Z,100085.19
2019-04-27T11:18:06.292Z,100084.13
2019-04-27T11:19:46.032Z,100082.34
2019-04-27T11:21:23.340Z,100077.84
2019-04-27T11:23:06.996Z,100071.27
2019-04-27T11:24:37.597Z,100075.69
2019-04-27T11:26:16.110Z,100075.42
2019-04-27T11:27:53.357Z,100075.20
2019-04-27T11:29:36.519Z,100072.79
2019-04-27T11:31:17.226Z,100076.83
2019-04-27T11:32:58.928Z,100074.66
2019-04-27T11:34:55.732Z,100068.18
2019-04-27T11:36:35.652Z,100071.49
2019-04-27T11:38:17.848Z,100073.88
2019-04-27T11:39:56.067Z,100076.05
2019-04-27T11:41:33.478Z,100078.36
2019-04-27T11:43:17.414Z,100076.14
2019-04-27T11:44:58.277Z,100071.00
2019-04-27T11:46:39.733Z,100068.10
2019-04-27T11:48:19.752Z,100076.83
2019-04-27T11:50:00.825Z,100070.09
2019-04-27T11:51:39.293Z,100065.74
2019-04-27T11:53:26.135Z,100064.66
2019-04-27T11:55:01.986Z,100061.00
2019-04-27T11:56:39.701Z,100060.32
2019-04-27T11:58:18.409Z,100062.27
2019-04-27T11:59:56.278Z,100056.45
2019-04-27T12:01:35.733Z,100055.92
2019-04-27T12:03:16.519Z,100051.55
2019-04-27T12:04:53.426Z,100047.66
2019-04-27T12:06:30.561Z,100043.71
2019-04-27T12:08:10.888Z,100044.09
2019-04-27T12:09:48.188Z,100036.97
2019-04-27T12:11:27.893Z,100037.06
2019-04-27T12:13:05.760Z,100036.46
2019-04-27T12:14:45.388Z,100035.27
2019-04-27T12:16:30.821Z,100029.06
2019-04-27T12:18:15.265Z,100030.72
2019-04-27T12:19:54.085Z,100029.09
2019-04-27T12:21:29.703Z,100027.89
2019-04-27T12:23:10.601Z,100021.52
2019-04-27T12:24:51.943Z,100022.14
2019-04-27T12:26:38.376Z,100027.29
2019-04-27T12:28:22.821Z,100022.92
2019-04-27T12:30:03.690Z,100019.61
2019-04-27T12:31:46.529Z,100016.33
2019-04-27T12:33:23.576Z,100019.91
2019-04-27T12:35:16.646Z,100012.58
2019-04-27T12:36:53.130Z,100011.16
2019-04-27T12:38:28.272Z,100002.70
2019-04-27T12:40:05.968Z,100009.77
2019-04-27T12:41:41.546Z,100004.62
2019-04-27T12:43:17.134Z,100006.03
2019-04-27T12:44:52.709Z,100011.80
2019-04-27T12:46:29.723Z,100008.92
2019-04-27T12:48:09.944Z,100011.57
2019-04-27T12:49:45.650Z,100006.72
2019-04-27T12:51:23.588Z,100005.07
2019-04-27T12:53:09.882Z,100011.03
2019-04-27T12:54:47.351Z,100006.72
2019-04-27T12:56:35.483Z,100009.39
2019-04-27T12:58:29.047Z,100003.78
2019-04-27T13:00:11.634Z,100005.28
2019-04-27T13:01:47.174Z,99996.59
2019-04-27T13:03:22.733Z,99995.41
2019-04-27T13:04:59.503Z,99996.67
2019-04-27T13:06:35.795Z,99997.70
2019-04-27T13:08:11.708Z,99999.50
2019-04-27T13:09:47.254Z,99992.42
2019-04-27T13:11:23.073Z,99992.05
2019-04-27T13:12:59.662Z,99995.91
2019-04-27T13:14:36.516Z,99994.58
2019-04-27T13:16:12.359Z,99997.45
2019-04-27T13:17:47.927Z,99984.70
2019-04-27T13:19:23.744Z,99988.66
2019-04-27T13:20:59.879Z,99981.06
2019-04-27T13:22:37.160Z,99973.28
2019-04-27T13:24:12.892Z,99976.91
2019-04-27T13:25:50.136Z,99977.91
2019-04-27T13:27:26.970Z,99969.19
2019-04-27T13:29:06.562Z,99973.17
2019-04-27T13:30:45.634Z,99974.31
2019-04-27T13:32:22.401Z,99972.88
2019-04-27T13:34:09.826Z,99974.12
2019-04-27T13:36:01.388Z,99972.73
2019-04-27T13:37:52.691Z,99974.06
2019-04-27T13:39:25.701Z,99974.64
2019-04-27T13:41:25.609Z,99968.73
2019-04-27T13:42:57.553Z,99974.45
2019-04-27T13:57:04.896Z,99968.42
2019-04-27T13:58:40.412Z,99964.64
2019-04-27T14:00:16.350Z,99965.37
2019-04-27T14:01:51.895Z,99961.95
2019-04-27T14:03:27.399Z,99956.44
2019-04-27T14:05:03.292Z,99955.14
2019-04-27T14:08:26.407Z,99951.06
2019-04-27T14:10:01.933Z,99958.44
2019-04-27T14:11:39.405Z,99949.73
2019-04-27T14:13:17.512Z,99950.64
2019-04-27T14:14:52.303Z,99945.01
2019-04-27T14:16:29.075Z,99942.92
2019-04-27T14:18:04.879Z,99946.20
2019-04-27T14:19:40.388Z,99942.56
2019-04-27T14:21:15.918Z,99936.14
2019-04-27T14:22:51.436Z,99932.30
2019-04-27T14:24:31.924Z,99932.67
2019-04-27T14:26:05.818Z,99928.25
2019-04-27T14:27:41.958Z,99928.62
2019-04-27T14:29:18.946Z,99929.80
2019-04-27T14:30:54.477Z,99922.56
2019-04-27T14:32:30.999Z,99927.60
2019-04-27T14:34:06.512Z,99922.00
2019-04-27T14:35:42.030Z,99920.81
2019-04-27T14:37:18.593Z,99920.45
2019-04-27T14:38:54.442Z,99919.41
2019-04-27T14:40:30.200Z,99921.73
2019-04-27T14:42:05.733Z,99923.87
2019-04-27T14:43:41.243Z,99925.03
2019-04-27T14:45:16.767Z,99922.94
2019-04-27T14:46:52.287Z,99921.41
2019-04-27T14:48:29.554Z,99919.44
2019-04-27T14:50:08.832Z,99910.63
2019-04-27T14:51:44.524Z,99913.56
2019-04-27T14:53:20.110Z,99914.73
2019-04-27T14:54:55.635Z,99911.70
2019-04-27T14:56:31.225Z,99913.34
2019-04-27T14:58:08.568Z,99908.06
2019-04-27T14:59:43.974Z,99911.23
2019-04-27T15:01:23.696Z,99908.97
2019-04-27T15:02:59.739Z,99909.77
2019-04-27T15:04:37.619Z,99903.20
2019-04-27T15:06:22.797Z,99898.83
2019-04-27T15:08:01.740Z,99898.46
2019-04-27T15:09:36.081Z,99902.20
2019-04-27T15:11:15.556Z,99903.82
2019-04-27T15:12:49.327Z,99900.38
2019-04-27T15:14:25.030Z,99906.71
2019-04-27T15:16:02.692Z,99906.89
2019-04-27T15:17:37.820Z,99912.38
2019-04-27T15:19:26.664Z,99911.53
2019-04-27T15:21:02.642Z,99916.20
2019-04-27T15:22:40.343Z,99917.20
2019-04-27T15:24:15.984Z,99914.36
2019-04-27T15:25:51.495Z,99910.95
2019-04-27T15:27:30.842Z,99909.05
2019-04-27T15:29:06.820Z,99908.81
2019-04-27T15:30:52.754Z,99903.20
2019-04-27T15:32:33.581Z,99909.30
2019-04-27T15:34:17.780Z,99906.25
2019-04-27T15:35:58.265Z,99909.87
2019-04-27T15:37:39.352Z,99914.08
2019-04-27T15:39:32.414Z,99906.74
2019-04-27T15:41:09.819Z,99901.34
2019-04-27T15:42:52.925Z,99904.39
2019-04-27T15:44:27.912Z,99898.22
2019-04-27T15:46:03.584Z,99898.43
2019-04-27T15:47:42.544Z,99898.22
2019-04-27T15:49:17.945Z,99892.45
2019-04-27T15:50:53.552Z,99880.03
2019-04-27T15:52:30.180Z,99887.36
2019-04-27T15:54:06.463Z,99890.32
2019-04-27T15:55:42.211Z,99895.77
2019-04-27T15:57:19.141Z,99900.81
2019-04-27T15:58:55.704Z,99896.80
2019-04-27T16:00:32.751Z,99896.78
2019-04-27T16:02:11.844Z,99896.63
2019-04-27T16:03:45.688Z,99896.22
2019-04-27T16:05:23.468Z,99899.31
2019-04-27T16:07:00.587Z,99898.80
2019-04-27T16:08:38.302Z,99895.21
2019-04-27T16:10:14.165Z,99896.64
2019-04-27T16:11:57.682Z,99895.39
2019-04-27T16:13:32.980Z,99894.33
2019-04-27T16:15:07.981Z,99897.58
2019-04-27T16:16:43.675Z,99894.37
2019-04-27T16:18:19.498Z,99893.35
2019-04-27T16:19:55.051Z,99889.50
2019-04-27T16:21:31.629Z,99893.70
2019-04-27T16:23:08.747Z,99893.95
2019-04-27T16:24:44.379Z,99891.12
2019-04-27T16:26:20.018Z,99888.23
2019-04-27T16:27:55.591Z,99887.34
2019-04-27T16:29:31.603Z,99880.02
2019-04-27T16:31:07.734Z,99877.39
2019-04-27T16:32:44.494Z,99880.60
2019-04-27T16:34:20.581Z,99876.31
2019-04-27T16:36:00.357Z,99885.45
2019-04-27T16:37:52.015Z,99883.88
2019-04-27T16:39:28.694Z,99887.30
2019-04-27T16:41:04.297Z,99884.11
2019-04-27T16:42:40.708Z,99886.06
2019-04-27T16:44:16.236Z,99885.25
2019-04-27T16:45:51.776Z,99893.97
2019-04-27T16:47:28.216Z,99888.38
2019-04-27T16:49:07.331Z,99877.27
2019-04-27T16:50:41.448Z,99872.34
2019-04-27T16:52:19.253Z,99870.69
2019-04-27T16:53:54.942Z,99863.52
2019-04-27T16:55:34.176Z,99860.80
2019-04-27T16:57:10.347Z,99868.67
2019-04-27T16:58:49.001Z,99869.59
2019-04-27T17:00:26.539Z,99861.84
2019-04-27T17:02:02.192Z,99862.17
2019-04-27T17:03:38.944Z,99862.50
2019-04-27T17:05:15.457Z,99864.27
2019-04-27T17:06:52.050Z,99876.05
2019-04-27T17:08:29.091Z,99881.20
2019-04-27T17:10:05.914Z,99881.02
2019-04-27T17:11:43.605Z,99879.21
2019-04-27T17:13:19.329Z,99886.90
2019-04-27T17:14:59.429Z,99886.81
2019-04-27T17:16:51.911Z,99889.16
2019-04-27T17:18:44.842Z,99881.73
2019-04-27T17:20:21.365Z,99892.31
2019-04-27T17:21:56.961Z,99891.38
2019-04-27T17:23:32.477Z,99889.53
2019-04-27T17:25:08.930Z,99887.39
2019-04-27T17:26:44.799Z,99889.44
2019-04-27T17:28:20.334Z,99891.72
2019-04-27T17:30:00.756Z,99901.30
2019-04-27T17:31:35.119Z,99906.73
2019-04-27T17:33:28.620Z,99902.34
2019-04-27T17:35:08.830Z,99904.36
2019-04-27T17:36:42.887Z,99905.69
2019-04-27T17:38:18.394Z,99903.84
2019-04-27T17:39:59.494Z,99915.07
2019-04-27T17:41:31.227Z,99911.86
2019-04-27T17:43:09.901Z,99903.61
2019-04-27T17:44:43.965Z,99911.78
2019-04-27T17:46:19.976Z,99903.53
2019-04-27T17:48:00.386Z,99906.45
2019-04-27T17:49:33.921Z,99914.35
2019-04-27T17:51:09.955Z,99916.13
2019-04-27T17:52:49.766Z,99921.51
2019-04-27T17:54:23.019Z,99929.12
2019-04-27T17:56:02.934Z,99930.08
2019-04-27T17:57:35.773Z,99935.45
2019-04-27T17:59:16.939Z,99942.87
2019-04-27T18:00:48.524Z,99948.23
2019-04-27T18:02:24.294Z,99963.42
2019-04-27T18:04:02.923Z,99960.80
2019-04-27T18:05:38.972Z,99959.91
2019-04-27T18:07:15.096Z,99972.97
2019-04-27T18:08:55.097Z,99971.83
2019-04-27T18:10:29.326Z,99965.42
2019-04-27T18:12:09.660Z,99980.66
2019-04-27T18:13:42.245Z,99987.81
2019-04-27T18:15:18.732Z,99991.08
2019-04-27T18:16:54.333Z,99999.56
2019-04-27T18:18:31.483Z,100002.20
2019-04-27T18:20:11.786Z,100007.28
2019-04-27T18:22:01.008Z,100014.67
2019-04-27T18:23:45.345Z,100016.22
2019-04-27T18:25:21.278Z,100024.45
2019-04-27T18:27:10.344Z,100027.09
2019-04-27T18:28:52.288Z,100029.38
2019-04-27T18:30:28.748Z,100037.55
2019-04-27T18:32:06.128Z,100043.76
2019-04-27T18:33:41.741Z,100052.98
2019-04-27T18:35:19.952Z,100052.80
2019-04-27T18:36:54.969Z,100056.47
2019-04-27T18:38:30.768Z,100056.49
2019-04-27T18:40:09.304Z,100057.64
2019-04-27T18:41:50.542Z,100063.84
2019-04-27T18:43:22.585Z,100070.24
2019-04-27T18:45:06.014Z,100066.12
2019-04-27T18:46:35.675Z,100066.40
2019-04-27T18:48:13.712Z,100071.77
2019-04-27T18:50:07.350Z,100061.28
2019-04-27T18:51:38.741Z,100061.09
2019-04-27T18:53:16.461Z,100058.11
2019-04-27T18:54:53.146Z,100058.47
2019-04-27T18:56:29.072Z,100063.80
2019-04-27T18:58:06.185Z,100060.77
2019-04-27T18:59:41.710Z,100061.66
2019-04-27T19:01:18.771Z,100056.69
2019-04-27T19:02:54.591Z,100060.58
2019-04-27T19:04:30.117Z,100060.91
2019-04-27T19:06:05.695Z,100053.44
2019-04-27T19:07:41.413Z,100059.83
2019-04-27T19:09:18.696Z,100055.41
2019-04-27T19:10:54.261Z,100055.45
2019-04-27T19:12:29.778Z,100057.71
2019-04-27T19:14:05.301Z,100059.66
2019-04-27T19:15:40.847Z,100052.74
2019-04-27T19:17:19.523Z,100046.39